createdAt,value
2018-05-15T00:01:43.259Z,26.40
2018-05-15T00:04:12.693Z,26.20
2018-05-15T00:06:42.057Z,26.20
2018-05-15T00:09:11.399Z,27.00
2018-05-15T00:11:40.772Z,26.60
2018-05-15T00:14:10.799Z,27.00
2018-05-15T00:16:40.358Z,26.20
2018-05-15T00:19:09.683Z,27.40
2018-05-15T00:21:39.011Z,27.20
2018-05-15T00:24:08.267Z,27.40
2018-05-15T00:26:37.457Z,26.40
2018-05-15T00:29:06.535Z,27.00
2018-05-15T00:31:35.543Z,27.80
2018-05-15T00:34:04.511Z,26.00
2018-05-15T00:36:33.406Z,27.00
2018-05-15T00:39:03.746Z,27.00
2018-05-15T00:41:33.123Z,26.00
2018-05-15T00:44:02.180Z,25.80
2018-05-15T00:46:31.505Z,24.00
2018-05-15T00:49:00.182Z,25.80
2018-05-15T00:51:29.089Z,26.00
2018-05-15T00:53:58.108Z,26.80
2018-05-15T00:56:27.667Z,26.80
2018-05-15T00:58:56.769Z,26.00
2018-05-15T01:01:26.062Z,26.40
2018-05-15T01:03:55.668Z,27.80
2018-05-15T01:06:25.508Z,26.00
2018-05-15T01:08:54.899Z,27.40
2018-05-15T01:11:24.268Z,27.00
2018-05-15T01:13:53.952Z,27.80
2018-05-15T01:16:23.185Z,27.00
2018-05-15T01:18:52.512Z,27.80
2018-05-15T01:21:21.738Z,28.00
2018-05-15T01:23:51.383Z,27.40
2018-05-15T01:26:20.872Z,27.60
2018-05-15T01:28:49.311Z,29.80
2018-05-15T01:31:18.680Z,28.00
2018-05-15T01:33:48.567Z,27.20
2018-05-15T01:36:17.858Z,28.00
2018-05-15T01:38:47.088Z,25.60
2018-05-15T01:41:17.470Z,27.80
2018-05-15T01:43:47.343Z,28.00
2018-05-15T01:46:18.247Z,28.60
2018-05-15T01:48:47.718Z,28.40
2018-05-15T01:51:17.161Z,28.00
2018-05-15T01:53:46.689Z,28.60
2018-05-15T01:56:16.180Z,28.00
2018-05-15T01:58:45.663Z,28.00
2018-05-15T02:01:15.489Z,31.20
2018-05-15T02:03:44.618Z,31.60
2018-05-15T02:06:14.279Z,31.40
2018-05-15T02:08:43.442Z,32.00
2018-05-15T02:11:13.103Z,32.40
2018-05-15T02:13:42.894Z,31.40
2018-05-15T02:16:12.863Z,31.80
2018-05-15T02:18:41.825Z,30.20
2018-05-15T02:21:11.483Z,32.20
2018-05-15T02:23:41.267Z,31.60
2018-05-15T02:26:11.321Z,32.40
2018-05-15T02:28:40.636Z,32.60
2018-05-15T02:31:09.649Z,33.60
2018-05-15T02:33:39.371Z,31.40
2018-05-15T02:36:08.548Z,34.00
2018-05-15T02:38:38.247Z,33.60
2018-05-15T02:41:07.189Z,33.00
2018-05-15T02:43:37.158Z,31.00
2018-05-15T02:46:05.972Z,33.60
2018-05-15T02:48:34.756Z,33.00
2018-05-15T02:51:04.499Z,34.80
2018-05-15T02:53:33.430Z,35.40
2018-05-15T02:56:02.761Z,32.00
2018-05-15T02:58:32.539Z,34.40
2018-05-15T03:01:01.167Z,34.00
2018-05-15T03:03:30.670Z,32.60
2018-05-15T03:05:59.959Z,33.20
2018-05-15T03:08:29.138Z,34.00
2018-05-15T03:10:59.265Z,33.40
2018-05-15T03:13:28.299Z,35.60
2018-05-15T03:15:57.098Z,34.20
2018-05-15T03:18:26.829Z,35.00
2018-05-15T03:20:56.408Z,35.40
2018-05-15T03:23:26.046Z,34.20
2018-05-15T03:25:55.119Z,34.00
2018-05-15T03:28:24.208Z,34.20
2018-05-15T03:30:53.545Z,33.20
2018-05-15T03:33:22.306Z,34.20
2018-05-15T03:35:52.140Z,36.80
2018-05-15T03:38:21.118Z,35.00
2018-05-15T03:40:51.112Z,32.80
2018-05-15T03:43:20.132Z,35.00
2018-05-15T03:45:50.018Z,34.00
2018-05-15T03:48:19.766Z,33.00
2018-05-15T03:50:48.658Z,33.80
2018-05-15T03:53:18.791Z,32.00
2018-05-15T03:55:48.460Z,33.00
2018-05-15T03:58:17.961Z,33.00
2018-05-15T04:00:58.909Z,32.40
2018-05-15T04:03:39.684Z,30.00
2018-05-15T04:06:20.030Z,31.00
2018-05-15T04:08:50.104Z,31.40
2018-05-15T04:11:18.922Z,31.80
2018-05-15T04:13:48.549Z,32.00
2018-05-15T04:16:18.181Z,31.60
2018-05-15T04:18:46.964Z,30.60
2018-05-15T04:21:16.157Z,30.80
2018-05-15T04:23:45.557Z,31.00
2018-05-15T04:26:14.760Z,32.00
2018-05-15T04:28:44.006Z,30.80
2018-05-15T04:31:13.567Z,30.00
2018-05-15T04:33:43.781Z,31.00
2018-05-15T04:36:12.546Z,29.80
2018-05-15T04:38:43.303Z,31.00
2018-05-15T04:41:11.968Z,29.20
2018-05-15T04:43:41.324Z,30.20
2018-05-15T04:46:12.764Z,31.20
2018-05-15T04:48:41.627Z,31.00
2018-05-15T04:51:10.129Z,30.80
2018-05-15T04:53:38.795Z,28.00
2018-05-15T04:56:07.879Z,29.80
2018-05-15T04:58:37.820Z,26.60
2018-05-15T05:01:07.477Z,29.40
2018-05-15T05:03:36.582Z,28.20
2018-05-15T05:06:06.583Z,28.00
2018-05-15T05:08:36.002Z,30.00
2018-05-15T05:11:05.817Z,29.40
2018-05-15T05:13:35.289Z,28.60
2018-05-15T05:16:04.262Z,28.60
2018-05-15T05:18:33.951Z,28.40
2018-05-15T05:21:03.237Z,29.00
2018-05-15T05:23:32.763Z,29.00
2018-05-15T05:26:02.104Z,28.80
2018-05-15T05:28:31.686Z,28.60
2018-05-15T05:31:01.792Z,28.80
2018-05-15T05:33:31.016Z,26.00
2018-05-15T05:35:59.846Z,28.00
2018-05-15T05:38:29.012Z,29.00
2018-05-15T05:40:58.725Z,30.20
2018-05-15T05:43:27.922Z,29.60
2018-05-15T05:45:56.926Z,29.60
2018-05-15T05:48:26.583Z,29.40
2018-05-15T05:50:55.707Z,28.40
2018-05-15T05:53:25.741Z,28.00
2018-05-15T05:55:55.234Z,28.80
2018-05-15T05:58:24.390Z,29.00
2018-05-15T06:00:53.328Z,29.20
2018-05-15T06:03:22.593Z,29.20
2018-05-15T06:05:51.730Z,29.20
2018-05-15T06:08:24.109Z,29.00
2018-05-15T06:10:53.084Z,30.00
2018-05-15T06:13:23.220Z,29.80
2018-05-15T06:15:52.722Z,29.60
2018-05-15T06:18:22.580Z,28.40
2018-05-15T06:20:52.003Z,27.40
2018-05-15T06:23:22.016Z,27.60
2018-05-15T06:25:51.244Z,27.00
2018-05-15T06:28:20.783Z,27.20
2018-05-15T06:30:50.761Z,26.40
2018-05-15T06:33:20.245Z,26.60
2018-05-15T06:35:50.015Z,26.80
2018-05-15T06:38:19.504Z,27.80
2018-05-15T06:40:49.392Z,26.00
2018-05-15T06:43:18.657Z,24.60
2018-05-15T06:45:47.327Z,26.00
2018-05-15T06:48:17.186Z,26.00
2018-05-15T06:50:46.578Z,27.00
2018-05-15T06:53:15.664Z,26.60
2018-05-15T06:55:44.681Z,26.40
2018-05-15T06:58:13.371Z,26.80
2018-05-15T07:00:43.205Z,27.40
2018-05-15T07:03:12.543Z,26.20
2018-05-15T07:05:42.163Z,26.00
2018-05-15T07:08:12.109Z,26.20
2018-05-15T07:10:41.826Z,26.20
2018-05-15T07:13:11.921Z,25.60
2018-05-15T07:15:41.418Z,24.80
2018-05-15T07:18:10.830Z,26.40
2018-05-15T07:20:40.580Z,25.60
2018-05-15T07:23:10.093Z,24.60
2018-05-15T07:25:39.634Z,25.20
2018-05-15T07:28:08.616Z,25.20
2018-05-15T07:30:37.541Z,24.40
2018-05-15T07:33:07.520Z,25.20
2018-05-15T07:35:36.883Z,23.60
2018-05-15T07:38:05.609Z,25.20
2018-05-15T07:40:34.457Z,25.20
2018-05-15T07:43:03.989Z,25.80
2018-05-15T07:45:33.913Z,25.00
2018-05-15T07:48:03.334Z,25.20
2018-05-15T07:50:32.476Z,27.20
2018-05-15T07:53:02.741Z,26.80
2018-05-15T07:55:32.376Z,26.80
2018-05-15T07:58:02.263Z,25.20
2018-05-15T08:00:32.380Z,27.40
2018-05-15T08:03:01.699Z,25.60
2018-05-15T08:05:31.389Z,26.80
2018-05-15T08:08:00.848Z,28.20
2018-05-15T08:10:30.377Z,27.80
2018-05-15T08:13:00.293Z,24.00
2018-05-15T08:15:29.380Z,26.80
2018-05-15T08:17:59.176Z,24.80
2018-05-15T08:20:30.457Z,25.80
2018-05-15T08:22:59.175Z,24.40
2018-05-15T08:25:27.700Z,23.20
2018-05-15T08:27:57.629Z,24.00
2018-05-15T08:30:27.613Z,23.80
2018-05-15T08:32:57.523Z,24.20
2018-05-15T08:35:26.268Z,23.80
2018-05-15T08:37:54.945Z,24.60
2018-05-15T08:40:23.897Z,23.80
2018-05-15T08:42:53.453Z,24.20
2018-05-15T08:45:22.288Z,23.80
2018-05-15T08:47:51.951Z,25.80
2018-05-15T08:50:21.030Z,23.80
2018-05-15T08:52:50.517Z,24.80
2018-05-15T08:55:22.115Z,22.00
2018-05-15T08:57:51.126Z,24.40
2018-05-15T09:00:21.160Z,25.60
2018-05-15T09:02:50.982Z,24.20
2018-05-15T09:05:20.514Z,22.20
2018-05-15T09:07:50.452Z,24.20
2018-05-15T09:10:19.861Z,25.20
2018-05-15T09:12:48.903Z,23.60
2018-05-15T09:15:18.364Z,25.40
2018-05-15T09:17:48.356Z,25.80
2018-05-15T09:20:18.457Z,24.40
2018-05-15T09:22:47.679Z,24.60
2018-05-15T09:25:16.958Z,22.60
2018-05-15T09:27:47.033Z,24.80
2018-05-15T09:30:16.323Z,24.80
2018-05-15T09:32:46.034Z,24.00
2018-05-15T09:35:15.346Z,23.00
2018-05-15T09:37:45.790Z,23.80
2018-05-15T09:40:15.139Z,24.00
2018-05-15T09:42:44.816Z,22.40
2018-05-15T09:45:13.859Z,20.40
2018-05-15T09:47:42.992Z,23.00
2018-05-15T09:50:12.419Z,22.80
2018-05-15T09:52:41.541Z,23.40
2018-05-15T09:55:12.319Z,24.80
2018-05-15T09:57:42.856Z,23.60
2018-05-15T10:00:12.516Z,23.00
2018-05-15T10:02:41.901Z,23.60
2018-05-15T10:05:11.049Z,23.40
2018-05-15T10:07:40.756Z,23.00
2018-05-15T10:10:09.991Z,23.80
2018-05-15T10:12:39.186Z,24.00
2018-05-15T10:15:08.006Z,23.60
2018-05-15T10:17:37.334Z,24.20
2018-05-15T10:20:07.271Z,24.60
2018-05-15T10:22:37.339Z,24.00
2018-05-15T10:25:06.615Z,24.00
2018-05-15T10:27:35.621Z,26.00
2018-05-15T10:30:05.492Z,23.40
2018-05-15T10:32:34.538Z,23.80
2018-05-15T10:35:05.868Z,23.00
2018-05-15T10:37:35.797Z,26.20
2018-05-15T10:40:06.307Z,25.20
2018-05-15T10:42:36.495Z,24.80
2018-05-15T10:45:07.031Z,25.20
2018-05-15T10:47:36.612Z,23.60
2018-05-15T10:50:06.743Z,23.40
2018-05-15T10:52:37.144Z,22.00
2018-05-15T10:55:10.302Z,24.00
2018-05-15T10:57:42.452Z,23.40
2018-05-15T11:00:14.040Z,24.00
2018-05-15T11:02:46.400Z,24.60
2018-05-15T11:05:16.361Z,27.40
2018-05-15T11:07:46.806Z,26.00
2018-05-15T11:10:16.892Z,30.80
2018-05-15T11:12:46.207Z,29.40
2018-05-15T11:15:15.799Z,29.80
2018-05-15T11:17:45.146Z,26.00
2018-05-15T11:20:26.278Z,29.00
2018-05-15T11:23:07.105Z,28.20
2018-05-15T11:25:37.366Z,27.00
2018-05-15T11:28:06.888Z,27.60
2018-05-15T11:30:36.271Z,27.40
2018-05-15T11:33:06.596Z,26.40
2018-05-15T11:35:36.200Z,26.00
2018-05-15T11:38:05.998Z,26.20
2018-05-15T11:40:35.715Z,25.40
2018-05-15T11:43:05.390Z,25.80
2018-05-15T11:45:35.081Z,23.80
2018-05-15T11:48:04.703Z,24.00
2018-05-15T11:50:35.111Z,24.00
2018-05-15T11:53:04.615Z,23.80
2018-05-15T11:55:35.295Z,23.00
2018-05-15T11:58:03.676Z,24.40
2018-05-15T12:00:33.403Z,23.00
2018-05-15T12:03:02.651Z,23.60
2018-05-15T12:05:31.229Z,24.00
2018-05-15T12:08:01.448Z,23.60
2018-05-15T12:10:47.985Z,23.00
2018-05-15T12:13:17.702Z,23.00
2018-05-15T12:15:47.372Z,23.00
2018-05-15T12:18:17.253Z,24.00
2018-05-15T12:20:46.717Z,24.00
2018-05-15T12:23:15.547Z,24.40
2018-05-15T12:25:44.865Z,23.00
2018-05-15T12:28:14.129Z,24.20
2018-05-15T12:30:42.605Z,24.40
2018-05-15T12:33:12.269Z,23.00
2018-05-15T12:35:41.577Z,22.60
2018-05-15T12:38:10.743Z,23.40
2018-05-15T12:40:39.955Z,23.00
2018-05-15T12:43:09.101Z,22.20
2018-05-15T12:45:38.463Z,23.00
2018-05-15T12:48:07.307Z,22.40
2018-05-15T12:50:36.563Z,23.00
2018-05-15T12:53:06.131Z,24.00
2018-05-15T12:55:35.727Z,22.80
2018-05-15T12:58:06.509Z,22.00
2018-05-15T13:00:36.828Z,25.00
2018-05-15T13:03:06.019Z,24.40
2018-05-15T13:05:35.135Z,24.60
2018-05-15T13:08:04.827Z,23.00
2018-05-15T13:10:34.146Z,24.00
2018-05-15T13:13:03.995Z,23.40
2018-05-15T13:15:33.675Z,22.80
2018-05-15T13:18:02.571Z,24.40
2018-05-15T13:20:31.832Z,23.00
2018-05-15T13:23:01.071Z,23.60
2018-05-15T13:25:29.720Z,22.60
2018-05-15T13:27:59.376Z,22.60
2018-05-15T13:30:29.426Z,22.00
2018-05-15T13:32:59.328Z,21.00
2018-05-15T13:35:29.315Z,22.60
2018-05-15T13:37:58.605Z,23.20
2018-05-15T13:40:27.361Z,23.40
2018-05-15T13:42:56.846Z,23.00
2018-05-15T13:45:26.142Z,23.80
2018-05-15T13:47:56.081Z,23.40
2018-05-15T13:50:25.964Z,22.80
2018-05-15T13:52:54.908Z,24.60
2018-05-15T13:55:24.626Z,23.40
2018-05-15T13:57:53.812Z,22.80
2018-05-15T14:00:24.074Z,23.00
2018-05-15T14:02:53.356Z,23.60
2018-05-15T14:05:22.338Z,22.80
2018-05-15T14:07:50.971Z,23.00
2018-05-15T14:10:20.952Z,22.40
2018-05-15T14:12:49.782Z,23.80
2018-05-15T14:15:19.531Z,22.00
2018-05-15T14:17:48.076Z,21.40
2018-05-15T14:20:17.609Z,24.00
2018-05-15T14:22:47.188Z,24.40
2018-05-15T14:25:16.320Z,25.60
2018-05-15T14:27:45.538Z,23.40
2018-05-15T14:30:14.845Z,25.60
2018-05-15T14:32:44.155Z,25.60
2018-05-15T14:35:13.635Z,25.20
2018-05-15T14:37:42.945Z,26.20
2018-05-15T14:40:12.100Z,26.00
2018-05-15T14:42:52.112Z,26.00
2018-05-15T14:45:21.212Z,25.40
2018-05-15T14:47:51.108Z,25.80
2018-05-15T14:50:20.574Z,25.00
2018-05-15T14:52:50.520Z,26.00
2018-05-15T14:55:20.066Z,25.00
2018-05-15T14:57:49.617Z,26.20
2018-05-15T15:00:19.379Z,24.80
2018-05-15T15:02:49.021Z,25.80
2018-05-15T15:05:18.686Z,26.00
2018-05-15T15:07:48.125Z,25.60
2018-05-15T15:10:17.019Z,26.00
2018-05-15T15:12:46.119Z,27.00
2018-05-15T15:15:15.389Z,24.80
2018-05-15T15:17:44.536Z,27.00
2018-05-15T15:20:13.685Z,23.60
2018-05-15T15:22:43.605Z,25.60
2018-05-15T15:25:13.100Z,26.40
2018-05-15T15:27:42.770Z,26.40
2018-05-15T15:30:12.217Z,25.20
2018-05-15T15:32:41.251Z,23.20
2018-05-15T15:35:10.116Z,25.80
2018-05-15T15:37:39.770Z,27.40
2018-05-15T15:40:09.230Z,24.80
2018-05-15T15:42:38.142Z,28.00
2018-05-15T15:45:07.163Z,27.40
2018-05-15T15:47:36.864Z,28.20
2018-05-15T15:50:05.992Z,27.60
2018-05-15T15:52:34.698Z,27.00
2018-05-15T15:55:04.177Z,27.60
2018-05-15T15:57:33.943Z,27.00
2018-05-15T16:00:03.961Z,25.40
2018-05-15T16:02:33.263Z,28.00
2018-05-15T16:05:02.460Z,26.20
2018-05-15T16:07:32.659Z,27.60
2018-05-15T16:10:02.488Z,26.00
2018-05-15T16:12:33.339Z,27.40
2018-05-15T16:15:02.900Z,27.60
2018-05-15T16:17:43.590Z,27.20
2018-05-15T16:20:12.721Z,27.00
2018-05-15T16:22:42.349Z,28.00
2018-05-15T16:25:12.129Z,28.00
2018-05-15T16:27:41.878Z,25.80
2018-05-15T16:30:11.546Z,27.20
2018-05-15T16:32:41.146Z,26.20
2018-05-15T16:35:10.730Z,27.60
2018-05-15T16:37:39.893Z,26.40
2018-05-15T16:40:09.877Z,27.00
2018-05-15T16:42:39.365Z,26.80
2018-05-15T16:45:08.531Z,27.20
2018-05-15T16:47:37.745Z,27.00
2018-05-15T16:50:07.420Z,26.20
2018-05-15T16:52:37.142Z,26.80
2018-05-15T16:55:06.356Z,25.80
2018-05-15T16:57:36.371Z,27.20
2018-05-15T17:00:05.984Z,27.80
2018-05-15T17:02:35.749Z,28.00
2018-05-15T17:05:05.503Z,26.60
2018-05-15T17:07:34.517Z,27.40
2018-05-15T17:10:03.972Z,27.20
2018-05-15T17:12:33.997Z,28.20
2018-05-15T17:15:03.166Z,28.80
2018-05-15T17:17:33.330Z,29.80
2018-05-15T17:20:02.793Z,28.20
2018-05-15T17:22:32.215Z,29.60
2018-05-15T17:25:01.856Z,29.40
2018-05-15T17:27:31.437Z,29.20
2018-05-15T17:30:00.955Z,29.20
2018-05-15T17:32:31.191Z,28.60
2018-05-15T17:35:00.758Z,28.60
2018-05-15T17:37:30.453Z,29.00
2018-05-15T17:39:59.517Z,28.00
2018-05-15T17:42:28.686Z,28.00
2018-05-15T17:44:58.151Z,28.00
2018-05-15T17:47:27.376Z,29.40
2018-05-15T17:49:57.206Z,28.00
2018-05-15T17:52:26.704Z,31.20
2018-05-15T17:54:56.345Z,28.40
2018-05-15T17:57:26.006Z,29.00
2018-05-15T17:59:56.237Z,31.80
2018-05-15T18:02:25.644Z,31.20
2018-05-15T18:04:55.490Z,29.20
2018-05-15T18:07:24.927Z,28.80
2018-05-15T18:09:55.111Z,28.00
2018-05-15T18:12:25.204Z,29.20
2018-05-15T18:14:54.874Z,29.20
2018-05-15T18:17:24.428Z,30.20
2018-05-15T18:19:54.123Z,29.00
2018-05-15T18:22:23.463Z,29.80
2018-05-15T18:24:53.251Z,29.20
2018-05-15T18:27:22.777Z,28.80
2018-05-15T18:29:52.048Z,29.20
2018-05-15T18:32:21.159Z,28.20
2018-05-15T18:34:50.454Z,31.20
2018-05-15T18:37:20.147Z,31.00
2018-05-15T18:39:49.418Z,30.20
2018-05-15T18:42:18.419Z,31.80
2018-05-15T18:44:48.017Z,31.20
2018-05-15T18:47:17.581Z,29.60
2018-05-15T18:49:47.357Z,31.20
2018-05-15T18:52:16.959Z,31.00
2018-05-15T18:54:47.243Z,32.60
2018-05-15T18:57:17.758Z,31.40
2018-05-15T18:59:47.365Z,31.20
2018-05-15T19:02:16.547Z,31.20
2018-05-15T19:04:46.201Z,31.00
2018-05-15T19:07:15.442Z,30.60
2018-05-15T19:09:45.227Z,32.20
2018-05-15T19:12:14.046Z,32.80
2018-05-15T19:14:43.140Z,32.60
2018-05-15T19:17:12.404Z,31.20
2018-05-15T19:19:42.640Z,31.20
2018-05-15T19:22:11.869Z,30.60
2018-05-15T19:24:41.085Z,29.80
2018-05-15T19:27:10.532Z,31.20
2018-05-15T19:29:40.193Z,31.80
2018-05-15T19:35:09.800Z,31.60
2018-05-15T19:37:38.591Z,30.60
2018-05-15T19:40:13.506Z,31.00
2018-05-15T19:42:43.204Z,31.00
2018-05-15T19:45:12.908Z,31.20
2018-05-15T19:47:41.631Z,30.20
2018-05-15T19:50:10.677Z,29.20
2018-05-15T19:52:40.780Z,29.20
2018-05-15T19:55:09.969Z,33.20
2018-05-15T19:57:39.962Z,34.40
2018-05-15T20:00:09.490Z,32.20
2018-05-15T20:02:38.487Z,31.40
2018-05-15T20:05:07.990Z,32.20
2018-05-15T20:07:36.831Z,31.40
2018-05-15T20:10:06.342Z,32.00
2018-05-15T20:12:35.659Z,33.20
2018-05-15T20:15:05.108Z,32.20
2018-05-15T20:17:34.918Z,34.20
2018-05-15T20:20:04.681Z,36.00
2018-05-15T20:22:34.424Z,36.00
2018-05-15T20:25:03.530Z,34.20
2018-05-15T20:27:33.005Z,33.20
2018-05-15T20:30:02.356Z,34.60
2018-05-15T20:32:31.441Z,34.00
2018-05-15T20:35:00.396Z,33.20
2018-05-15T20:37:29.965Z,31.40
2018-05-15T20:39:59.694Z,31.40
2018-05-15T20:42:28.978Z,33.00
2018-05-15T20:44:58.121Z,31.60
2018-05-15T20:47:27.716Z,32.20
2018-05-15T20:49:57.187Z,32.80
2018-05-15T20:52:26.666Z,33.00
2018-05-15T20:54:56.362Z,31.80
2018-05-15T20:57:25.886Z,31.60
2018-05-15T20:59:56.106Z,31.60
2018-05-15T21:02:25.254Z,34.00
2018-05-15T21:04:54.219Z,30.20
2018-05-15T21:07:23.331Z,32.60
2018-05-15T21:09:52.007Z,32.80
2018-05-15T21:12:21.295Z,32.00
2018-05-15T21:14:50.267Z,33.20
2018-05-15T21:17:19.834Z,33.40
2018-05-15T21:19:49.181Z,31.40
2018-05-15T21:22:18.053Z,34.60
2018-05-15T21:24:46.655Z,32.20
2018-05-15T21:27:15.895Z,31.60
2018-05-15T21:29:45.121Z,32.00
2018-05-15T21:32:14.357Z,33.60
2018-05-15T21:34:44.008Z,33.80
2018-05-15T21:37:12.819Z,33.60
2018-05-15T21:39:41.615Z,35.00
2018-05-15T21:42:10.429Z,34.00
2018-05-15T21:44:40.016Z,34.80
2018-05-15T21:47:09.874Z,35.60
2018-05-15T21:49:39.676Z,34.80
2018-05-15T21:52:09.509Z,37.60
2018-05-15T21:54:39.158Z,32.00
2018-05-15T21:57:08.947Z,36.40
2018-05-15T21:59:38.092Z,39.20
2018-05-15T22:02:08.004Z,39.20
2018-05-15T22:04:36.987Z,35.60
2018-05-15T22:07:05.817Z,34.60
2018-05-15T22:09:35.551Z,36.20
2018-05-15T22:12:16.459Z,34.60
2018-05-15T22:14:58.259Z,35.40
2018-05-15T22:17:38.470Z,33.80
2018-05-15T22:20:19.176Z,34.60
2018-05-15T22:22:47.553Z,34.60
2018-05-15T22:25:16.356Z,34.60
2018-05-15T22:27:45.996Z,36.20
2018-05-15T22:30:15.464Z,34.40
2018-05-15T22:32:44.374Z,35.60
2018-05-15T22:35:14.239Z,36.20
2018-05-15T22:37:43.317Z,35.60
2018-05-15T22:40:13.026Z,33.80
2018-05-15T22:42:42.242Z,35.00
2018-05-15T22:45:11.357Z,33.40
2018-05-15T22:47:46.247Z,33.60
2018-05-15T22:50:15.055Z,32.80
2018-05-15T22:52:44.351Z,33.60
2018-05-15T22:55:13.793Z,33.40
2018-05-15T22:57:43.565Z,32.40
2018-05-15T23:00:12.952Z,33.40
2018-05-15T23:02:42.812Z,31.80
2018-05-15T23:05:12.926Z,30.60
2018-05-15T23:07:42.439Z,32.20
2018-05-15T23:10:12.071Z,32.60
2018-05-15T23:12:41.139Z,30.60
2018-05-15T23:15:10.137Z,31.80
2018-05-15T23:17:39.549Z,31.00
2018-05-15T23:20:08.320Z,31.60
2018-05-15T23:22:43.170Z,32.20
2018-05-15T23:25:12.318Z,30.60
2018-05-15T23:27:41.372Z,31.20
2018-05-15T23:30:10.884Z,30.60
2018-05-15T23:32:41.047Z,31.60
2018-05-15T23:35:10.637Z,33.40
2018-05-15T23:37:40.406Z,31.20
2018-05-15T23:40:09.062Z,29.80
2018-05-15T23:42:38.905Z,30.80
2018-05-15T23:45:08.460Z,30.60
2018-05-15T23:47:38.257Z,30.20
2018-05-15T23:50:08.065Z,31.20
2018-05-15T23:52:37.223Z,30.00
2018-05-15T23:55:21.217Z,27.60
2018-05-15T23:57:51.078Z,28.20
